createdAt,value
2018-10-16T00:00:15.322Z,101223.05
2018-10-16T00:02:44.923Z,101220.03
2018-10-16T00:05:15.128Z,101225.61
2018-10-16T00:07:45.018Z,101228.70
2018-10-16T00:10:18.971Z,101229.09
2018-10-16T00:12:48.281Z,101216.67
2018-10-16T00:15:19.583Z,101224.41
2018-10-16T00:17:49.065Z,101221.62
2018-10-16T00:20:19.187Z,101220.80
2018-10-16T00:22:49.253Z,101217.47
2018-10-16T00:25:18.605Z,101216.83
2018-10-16T00:27:48.319Z,101211.03
2018-10-16T00:30:17.281Z,101216.59
2018-10-16T00:32:46.768Z,101224.34
2018-10-16T00:35:17.017Z,101225.88
2018-10-16T00:37:47.745Z,101223.78
2018-10-16T00:40:17.481Z,101234.34
2018-10-16T00:42:47.863Z,101226.80
2018-10-16T00:45:16.700Z,101229.34
2018-10-16T00:47:46.514Z,101228.70
2018-10-16T00:50:16.982Z,101227.58
2018-10-16T00:52:46.135Z,101226.24
2018-10-16T00:55:16.611Z,101235.65
2018-10-16T00:57:46.604Z,101241.72
2018-10-16T01:00:16.535Z,101240.44
2018-10-16T01:02:47.599Z,101244.88
2018-10-16T01:05:17.355Z,101238.53
2018-10-16T01:07:47.518Z,101227.23
2018-10-16T01:10:17.034Z,101228.38
2018-10-16T01:12:48.164Z,101229.21
2018-10-16T01:15:18.598Z,101227.68
2018-10-16T01:17:47.593Z,101231.26
2018-10-16T01:20:18.786Z,101229.21
2018-10-16T01:22:49.053Z,101225.75
2018-10-16T01:25:18.106Z,101213.55
2018-10-16T01:27:48.118Z,101224.67
2018-10-16T01:30:17.094Z,101228.06
2018-10-16T01:32:47.288Z,101234.67
2018-10-16T01:35:16.228Z,101231.34
2018-10-16T01:37:45.392Z,101234.72
2018-10-16T01:40:16.061Z,101234.11
2018-10-16T01:42:47.829Z,101234.62
2018-10-16T01:45:17.245Z,101235.50
2018-10-16T01:47:46.195Z,101231.15
2018-10-16T01:50:15.622Z,101232.06
2018-10-16T01:52:45.262Z,101229.38
2018-10-16T01:55:15.094Z,101226.50
2018-10-16T01:57:44.443Z,101220.34
2018-10-16T02:00:14.509Z,101215.38
2018-10-16T02:02:44.723Z,101218.77
2018-10-16T02:05:13.597Z,101220.61
2018-10-16T02:07:43.230Z,101229.18
2018-10-16T02:10:12.780Z,101219.46
2018-10-16T02:12:42.425Z,101231.95
2018-10-16T02:15:11.952Z,101236.34
2018-10-16T02:17:42.242Z,101241.39
2018-10-16T02:20:11.214Z,101239.72
2018-10-16T02:22:40.487Z,101242.41
2018-10-16T02:25:11.088Z,101234.24
2018-10-16T02:27:40.801Z,101232.91
2018-10-16T02:30:11.445Z,101235.27
2018-10-16T02:32:40.724Z,101234.29
2018-10-16T02:35:11.318Z,101233.13
2018-10-16T02:37:41.195Z,101231.47
2018-10-16T02:40:10.746Z,101231.14
2018-10-16T02:42:41.382Z,101235.86
2018-10-16T02:45:12.432Z,101239.23
2018-10-16T02:47:42.005Z,101247.15
2018-10-16T02:50:12.756Z,101250.05
2018-10-16T02:52:42.995Z,101246.53
2018-10-16T02:55:12.149Z,101242.18
2018-10-16T02:57:42.542Z,101243.78
2018-10-16T03:00:11.804Z,101238.92
2018-10-16T03:02:42.836Z,101241.78
2018-10-16T03:05:11.984Z,101249.52
2018-10-16T03:07:41.208Z,101245.85
2018-10-16T03:10:10.448Z,101236.16
2018-10-16T03:12:40.265Z,101243.56
2018-10-16T03:15:12.266Z,101249.63
2018-10-16T03:17:41.546Z,101247.95
2018-10-16T03:20:12.709Z,101251.66
2018-10-16T03:22:42.778Z,101249.88
2018-10-16T03:25:13.922Z,101253.10
2018-10-16T03:27:42.781Z,101244.55
2018-10-16T03:30:12.847Z,101239.18
2018-10-16T03:32:42.749Z,101244.76
2018-10-16T03:35:13.129Z,101254.15
2018-10-16T03:37:43.115Z,101253.83
2018-10-16T03:40:12.605Z,101249.14
2018-10-16T03:42:42.677Z,101243.78
2018-10-16T03:45:12.948Z,101249.14
2018-10-16T03:47:42.058Z,101248.81
2018-10-16T03:50:12.126Z,101254.51
2018-10-16T03:52:42.845Z,101257.56
2018-10-16T03:55:12.639Z,101252.08
2018-10-16T03:57:43.407Z,101254.11
2018-10-16T04:00:12.735Z,101250.98
2018-10-16T04:02:41.974Z,101256.38
2018-10-16T04:05:12.090Z,101260.08
2018-10-16T04:07:42.000Z,101257.72
2018-10-16T04:10:11.612Z,101250.69
2018-10-16T04:12:41.337Z,101252.36
2018-10-16T04:15:11.281Z,101244.88
2018-10-16T04:17:41.763Z,101260.98
2018-10-16T04:20:11.257Z,101263.18
2018-10-16T04:22:41.347Z,101268.69
2018-10-16T04:25:13.041Z,101268.88
2018-10-16T04:27:42.084Z,101268.69
2018-10-16T04:30:11.713Z,101266.70
2018-10-16T04:32:41.978Z,101267.20
2018-10-16T04:35:13.652Z,101276.98
2018-10-16T04:37:42.767Z,101279.01
2018-10-16T04:40:12.558Z,101276.86
2018-10-16T04:42:42.825Z,101276.59
2018-10-16T04:45:13.691Z,101273.25
2018-10-16T04:47:43.194Z,101273.47
2018-10-16T04:50:13.029Z,101279.00
2018-10-16T04:52:42.508Z,101275.67
2018-10-16T04:55:12.959Z,101274.16
2018-10-16T04:57:43.074Z,101283.03
2018-10-16T05:00:12.785Z,101281.69
2018-10-16T05:02:42.878Z,101288.56
2018-10-16T05:05:19.057Z,101292.59
2018-10-16T05:07:49.367Z,101298.28
2018-10-16T05:10:18.760Z,101305.34
2018-10-16T05:12:48.615Z,101305.34
2018-10-16T05:15:24.869Z,101306.67
2018-10-16T05:17:55.227Z,101312.37
2018-10-16T05:20:27.918Z,101316.39
2018-10-16T05:22:58.714Z,101316.06
2018-10-16T05:25:30.436Z,101317.40
2018-10-16T05:27:59.916Z,101314.93
2018-10-16T05:30:30.413Z,101316.27
2018-10-16T05:33:00.546Z,101315.73
2018-10-16T05:35:30.570Z,101317.08
2018-10-16T05:38:01.621Z,101316.77
2018-10-16T05:40:32.143Z,101320.14
2018-10-16T05:43:01.222Z,101321.48
2018-10-16T05:45:33.774Z,101328.86
2018-10-16T05:48:05.985Z,101331.55
2018-10-16T05:50:36.895Z,101333.06
2018-10-16T05:53:08.840Z,101337.73
2018-10-16T05:55:39.388Z,101332.70
2018-10-16T05:58:09.274Z,101333.21
2018-10-16T06:00:47.422Z,101330.03
2018-10-16T06:03:18.168Z,101337.56
2018-10-16T06:05:47.437Z,101332.70
2018-10-16T06:10:58.032Z,101340.40
2018-10-16T06:13:28.590Z,101339.18
2018-10-16T06:15:58.231Z,101342.52
2018-10-16T06:18:27.942Z,101341.84
2018-10-16T06:21:01.256Z,101343.51
2018-10-16T06:23:30.356Z,101337.10
2018-10-16T06:25:59.474Z,101342.47
2018-10-16T06:28:29.171Z,101357.54
2018-10-16T06:30:59.231Z,101344.29
2018-10-16T06:33:31.068Z,101348.87
2018-10-16T06:36:00.754Z,101348.87
2018-10-16T06:38:31.222Z,101353.84
2018-10-16T06:41:01.088Z,101358.14
2018-10-16T06:43:31.729Z,101357.97
2018-10-16T06:46:01.018Z,101349.06
2018-10-16T06:48:30.990Z,101355.03
2018-10-16T06:51:00.485Z,101354.34
2018-10-16T06:53:29.917Z,101356.13
2018-10-16T06:55:59.114Z,101356.47
2018-10-16T06:58:29.195Z,101363.11
2018-10-16T07:00:58.972Z,101361.92
2018-10-16T07:03:28.597Z,101361.56
2018-10-16T07:05:59.687Z,101364.45
2018-10-16T07:08:28.740Z,101365.78
2018-10-16T07:10:57.953Z,101366.03
2018-10-16T07:13:27.387Z,101364.94
2018-10-16T07:15:57.530Z,101371.88
2018-10-16T07:18:26.704Z,101372.98
2018-10-16T07:20:56.252Z,101380.28
2018-10-16T07:23:26.587Z,101370.65
2018-10-16T07:25:56.354Z,101376.73
2018-10-16T07:28:26.365Z,101380.02
2018-10-16T07:30:56.599Z,101377.92
2018-10-16T07:33:26.546Z,101378.33
2018-10-16T07:35:56.262Z,101382.14
2018-10-16T07:38:26.677Z,101385.12
2018-10-16T07:40:56.353Z,101380.84
2018-10-16T07:43:25.663Z,101371.19
2018-10-16T07:45:54.734Z,101368.47
2018-10-16T07:48:24.288Z,101367.38
2018-10-16T07:50:54.617Z,101364.95
2018-10-16T07:53:25.064Z,101367.08
2018-10-16T07:55:54.363Z,101359.92
2018-10-16T07:58:23.569Z,101363.70
2018-10-16T08:00:53.837Z,101372.77
2018-10-16T08:03:23.630Z,101376.03
2018-10-16T08:05:52.655Z,101385.14
2018-10-16T08:08:22.151Z,101381.03
2018-10-16T08:10:51.603Z,101383.34
2018-10-16T08:13:20.790Z,101382.14
2018-10-16T08:15:51.820Z,101380.02
2018-10-16T08:18:21.024Z,101383.28
2018-10-16T08:20:49.955Z,101376.61
2018-10-16T08:23:19.553Z,101382.37
2018-10-16T08:25:48.873Z,101386.13
2018-10-16T08:28:18.477Z,101386.83
2018-10-16T08:30:48.808Z,101376.34
2018-10-16T08:33:18.310Z,101380.31
2018-10-16T08:35:48.509Z,101372.94
2018-10-16T08:39:32.548Z,101380.34
2018-10-16T08:44:14.363Z,101383.59
2018-10-16T08:46:54.255Z,101388.67
2018-10-16T08:49:34.574Z,101394.51
2018-10-16T08:52:04.022Z,101400.05
2018-10-16T08:54:33.146Z,101403.52
2018-10-16T08:57:02.332Z,101403.16
2018-10-16T08:59:31.943Z,101397.22
2018-10-16T09:02:02.586Z,101403.23
2018-10-16T09:04:33.099Z,101413.14
2018-10-16T09:07:02.607Z,101411.81
2018-10-16T09:09:31.597Z,101413.09
2018-10-16T09:12:01.049Z,101407.80
2018-10-16T09:14:30.950Z,101394.84
2018-10-16T09:17:00.641Z,101393.54
2018-10-16T09:19:29.771Z,101401.12
2018-10-16T09:21:59.218Z,101397.59
2018-10-16T09:24:29.343Z,101398.72
2018-10-16T09:26:59.158Z,101408.80
2018-10-16T09:29:29.342Z,101415.16
2018-10-16T09:31:58.642Z,101421.91
2018-10-16T09:34:29.195Z,101426.06
2018-10-16T09:36:58.680Z,101419.13
2018-10-16T09:39:28.823Z,101420.68
2018-10-16T09:41:59.046Z,101418.93
2018-10-16T09:44:28.789Z,101410.45
2018-10-16T09:46:57.872Z,101405.04
2018-10-16T09:49:28.498Z,101395.54
2018-10-16T09:51:58.979Z,101407.89
2018-10-16T09:54:27.842Z,101402.36
2018-10-16T09:56:56.898Z,101396.34
2018-10-16T09:59:27.875Z,101394.67
2018-10-16T10:01:57.509Z,101395.42
2018-10-16T10:04:27.482Z,101395.48
2018-10-16T10:06:57.158Z,101407.13
2018-10-16T10:09:25.868Z,101403.59
2018-10-16T10:11:54.596Z,101400.70
2018-10-16T10:14:23.443Z,101395.61
2018-10-16T10:16:52.450Z,101393.07
2018-10-16T10:19:21.438Z,101399.28
2018-10-16T10:21:50.928Z,101387.19
2018-10-16T10:24:21.256Z,101383.61
2018-10-16T10:26:51.677Z,101382.44
2018-10-16T10:29:22.634Z,101380.85
2018-10-16T10:31:53.029Z,101380.41
2018-10-16T10:34:23.549Z,101371.91
2018-10-16T10:36:53.754Z,101375.27
2018-10-16T10:39:24.403Z,101382.94
2018-10-16T10:41:53.686Z,101370.87
2018-10-16T10:44:23.998Z,101381.33
2018-10-16T10:46:55.197Z,101380.92
2018-10-16T10:49:24.302Z,101371.92
2018-10-16T10:51:55.013Z,101378.57
2018-10-16T10:54:24.180Z,101384.25
2018-10-16T10:56:54.663Z,101377.88
2018-10-16T10:59:23.645Z,101385.09
2018-10-16T11:01:52.842Z,101380.39
2018-10-16T11:04:21.979Z,101377.47
2018-10-16T11:06:51.065Z,101378.84
2018-10-16T11:09:20.988Z,101373.81
2018-10-16T11:11:55.002Z,101379.49
2018-10-16T11:14:24.981Z,101375.48
2018-10-16T11:16:54.951Z,101382.56
2018-10-16T11:19:24.121Z,101370.98
2018-10-16T11:21:53.946Z,101367.55
2018-10-16T11:24:23.010Z,101372.45
2018-10-16T11:26:52.619Z,101373.12
2018-10-16T11:29:21.741Z,101373.20
2018-10-16T11:31:51.273Z,101372.55
2018-10-16T11:34:20.978Z,101379.13
2018-10-16T11:36:50.048Z,101375.30
2018-10-16T11:39:19.164Z,101374.12
2018-10-16T11:41:49.763Z,101379.45
2018-10-16T11:44:19.737Z,101376.11
2018-10-16T11:46:49.519Z,101375.05
2018-10-16T11:49:19.092Z,101375.41
2018-10-16T11:51:48.402Z,101374.71
2018-10-16T11:54:18.641Z,101372.25
2018-10-16T11:56:48.193Z,101373.05
2018-10-16T11:59:17.395Z,101372.77
2018-10-16T12:01:46.812Z,101379.59
2018-10-16T12:04:15.860Z,101379.08
2018-10-16T12:06:46.023Z,101367.97
2018-10-16T12:09:16.637Z,101373.49
2018-10-16T12:11:50.158Z,101368.52
2018-10-16T12:14:19.752Z,101373.27
2018-10-16T12:17:12.575Z,101372.70
2018-10-16T12:20:44.382Z,101379.55
2018-10-16T12:23:14.649Z,101378.00
2018-10-16T12:25:43.525Z,101373.75
2018-10-16T12:28:12.877Z,101365.94
2018-10-16T12:30:42.920Z,101360.38
2018-10-16T12:33:13.289Z,101363.41
2018-10-16T12:35:43.027Z,101365.83
2018-10-16T12:38:12.542Z,101366.22
2018-10-16T12:40:42.504Z,101370.89
2018-10-16T12:43:11.722Z,101367.19
2018-10-16T12:45:41.395Z,101364.64
2018-10-16T12:48:10.433Z,101375.05
2018-10-16T12:50:39.785Z,101369.02
2018-10-16T12:53:08.935Z,101377.15
2018-10-16T12:55:39.270Z,101370.23
2018-10-16T12:58:09.979Z,101367.22
2018-10-16T13:00:40.281Z,101373.83
2018-10-16T13:03:09.994Z,101372.48
2018-10-16T13:05:39.852Z,101368.41
2018-10-16T13:08:09.875Z,101368.87
2018-10-16T13:10:40.559Z,101365.39
2018-10-16T13:13:10.421Z,101367.48
2018-10-16T13:15:39.689Z,101370.62
2018-10-16T13:18:08.841Z,101370.94
2018-10-16T13:20:38.605Z,101376.40
2018-10-16T13:23:08.755Z,101375.92
2018-10-16T13:25:38.951Z,101377.02
2018-10-16T13:28:08.958Z,101379.94
2018-10-16T13:30:39.259Z,101373.61
2018-10-16T13:33:08.417Z,101367.62
2018-10-16T13:35:37.329Z,101373.97
2018-10-16T13:38:07.125Z,101378.50
2018-10-16T13:40:36.775Z,101374.88
2018-10-16T13:43:06.385Z,101376.23
2018-10-16T13:45:35.885Z,101379.23
2018-10-16T13:48:05.604Z,101380.00
2018-10-16T13:50:35.014Z,101375.61
2018-10-16T13:53:04.627Z,101378.17
2018-10-16T13:55:34.633Z,101379.56
2018-10-16T13:58:04.392Z,101376.19
2018-10-16T14:00:34.441Z,101373.98
2018-10-16T14:03:04.469Z,101374.81
2018-10-16T14:05:34.313Z,101370.26
2018-10-16T14:08:03.605Z,101374.96
2018-10-16T14:10:33.490Z,101369.03
2018-10-16T14:13:03.927Z,101375.15
2018-10-16T14:15:34.074Z,101376.28
2018-10-16T14:18:04.365Z,101372.23
2018-10-16T14:20:33.600Z,101375.15
2018-10-16T14:23:06.143Z,101376.84
2018-10-16T14:25:35.672Z,101372.94
2018-10-16T14:28:06.193Z,101369.92
2018-10-16T14:30:37.425Z,101373.77
2018-10-16T14:33:08.787Z,101370.29
2018-10-16T14:35:38.621Z,101365.33
2018-10-16T14:38:08.141Z,101371.39
2018-10-16T14:40:37.190Z,101371.08
2018-10-16T14:43:06.733Z,101371.55
2018-10-16T14:45:35.812Z,101372.42
2018-10-16T14:48:05.351Z,101375.70
2018-10-16T14:50:35.660Z,101376.55
2018-10-16T14:53:05.011Z,101376.39
2018-10-16T14:55:35.363Z,101376.75
2018-10-16T14:58:06.456Z,101386.05
2018-10-16T15:00:35.580Z,101386.37
2018-10-16T15:03:05.224Z,101388.18
2018-10-16T15:05:34.724Z,101391.30
2018-10-16T15:08:04.357Z,101394.73
2018-10-16T15:10:34.830Z,101391.97
2018-10-16T15:13:04.900Z,101392.08
2018-10-16T15:15:34.666Z,101394.70
2018-10-16T15:18:04.334Z,101396.16
2018-10-16T15:20:34.213Z,101395.27
2018-10-16T15:23:03.237Z,101397.55
2018-10-16T15:25:32.845Z,101391.45
2018-10-16T15:28:03.379Z,101404.20
2018-10-16T15:30:32.508Z,101403.69
2018-10-16T15:33:01.705Z,101398.80
2018-10-16T15:35:33.079Z,101404.73
2018-10-16T15:38:02.818Z,101400.59
2018-10-16T15:40:33.447Z,101401.75
2018-10-16T15:43:03.591Z,101407.05
2018-10-16T15:45:33.217Z,101401.50
2018-10-16T15:48:02.389Z,101405.38
2018-10-16T15:50:31.981Z,101406.03
2018-10-16T15:53:01.535Z,101403.56
2018-10-16T15:55:31.702Z,101410.11
2018-10-16T15:58:01.516Z,101410.65
2018-10-16T16:00:31.181Z,101411.81
2018-10-16T16:03:01.110Z,101411.62
2018-10-16T16:05:30.942Z,101413.83
2018-10-16T16:08:00.881Z,101412.27
2018-10-16T16:10:30.098Z,101415.09
2018-10-16T16:12:59.560Z,101418.92
2018-10-16T16:15:28.873Z,101421.73
2018-10-16T16:17:58.031Z,101425.91
2018-10-16T16:20:27.845Z,101431.09
2018-10-16T16:22:58.403Z,101431.21
2018-10-16T16:25:27.539Z,101431.30
2018-10-16T16:27:57.124Z,101434.31
2018-10-16T16:30:27.808Z,101439.00
2018-10-16T16:32:58.002Z,101443.73
2018-10-16T16:35:27.612Z,101449.53
2018-10-16T16:37:57.168Z,101448.30
2018-10-16T16:40:27.873Z,101447.03
2018-10-16T16:42:57.643Z,101453.17
2018-10-16T16:45:28.323Z,101458.97
2018-10-16T16:47:57.891Z,101457.73
2018-10-16T16:50:27.440Z,101457.09
2018-10-16T16:52:57.513Z,101453.87
2018-10-16T16:55:27.523Z,101459.91
2018-10-16T16:57:57.284Z,101454.91
2018-10-16T17:00:26.898Z,101453.64
2018-10-16T17:02:56.260Z,101456.45
2018-10-16T17:05:25.715Z,101456.02
2018-10-16T17:07:55.557Z,101453.02
2018-10-16T17:10:24.833Z,101459.20
2018-10-16T17:12:54.530Z,101461.29
2018-10-16T17:15:25.174Z,101458.98
2018-10-16T17:17:54.324Z,101466.44
2018-10-16T17:20:23.540Z,101467.18
2018-10-16T17:22:53.636Z,101466.22
2018-10-16T17:25:23.039Z,101470.58
2018-10-16T17:27:53.331Z,101474.50
2018-10-16T17:30:22.915Z,101473.06
2018-10-16T17:32:53.529Z,101476.15
2018-10-16T17:35:26.967Z,101475.83
2018-10-16T17:37:57.378Z,101478.72
2018-10-16T17:40:26.771Z,101479.46
2018-10-16T17:42:56.466Z,101480.69
2018-10-16T17:45:26.082Z,101472.98
2018-10-16T17:47:55.161Z,101478.38
2018-10-16T17:50:24.163Z,101476.09
2018-10-16T17:52:53.225Z,101475.45
2018-10-16T17:55:22.798Z,101477.84
2018-10-16T17:57:53.072Z,101480.21
2018-10-16T18:00:22.797Z,101480.95
2018-10-16T18:02:51.781Z,101481.75
2018-10-16T18:05:21.103Z,101484.35
2018-10-16T18:07:50.059Z,101488.08
2018-10-16T18:10:20.660Z,101489.80
2018-10-16T18:12:51.494Z,101487.82
2018-10-16T18:15:22.419Z,101486.86
2018-10-16T18:17:51.619Z,101484.03
2018-10-16T18:20:21.865Z,101487.84
2018-10-16T18:22:51.088Z,101485.13
2018-10-16T18:25:20.068Z,101486.23
2018-10-16T18:27:49.574Z,101488.99
2018-10-16T18:30:18.931Z,101488.99
2018-10-16T18:32:48.213Z,101492.01
2018-10-16T18:35:17.260Z,101490.75
2018-10-16T18:37:46.916Z,101488.77
2018-10-16T18:40:16.218Z,101487.80
2018-10-16T18:42:52.234Z,101495.88
2018-10-16T18:45:22.495Z,101493.19
2018-10-16T18:47:52.105Z,101495.05
2018-10-16T18:50:22.660Z,101498.25
2018-10-16T18:52:56.147Z,101489.66
2018-10-16T18:55:25.755Z,101489.66
2018-10-16T18:57:57.101Z,101489.14
2018-10-16T19:00:27.461Z,101489.88
2018-10-16T19:02:58.677Z,101491.09
2018-10-16T19:05:28.853Z,101489.94
2018-10-16T19:07:58.471Z,101491.98
2018-10-16T19:10:28.051Z,101488.68
2018-10-16T19:12:57.324Z,101488.03
2018-10-16T19:15:29.719Z,101486.05
2018-10-16T19:18:00.337Z,101487.91
2018-10-16T19:20:29.339Z,101488.09
2018-10-16T19:22:59.521Z,101487.48
2018-10-16T19:25:30.101Z,101491.89
2018-10-16T19:27:59.330Z,101487.63
2018-10-16T19:30:31.725Z,101485.31
2018-10-16T19:33:00.765Z,101488.41
2018-10-16T19:35:30.427Z,101482.38
2018-10-16T19:38:00.828Z,101487.95
2018-10-16T19:40:30.594Z,101480.71
2018-10-16T19:43:00.480Z,101477.05
2018-10-16T19:45:30.155Z,101471.43
2018-10-16T19:48:01.126Z,101474.53
2018-10-16T19:50:30.226Z,101476.90
2018-10-16T19:53:01.986Z,101477.92
2018-10-16T19:55:32.054Z,101482.79
2018-10-16T19:58:02.247Z,101479.78
2018-10-16T20:00:31.449Z,101482.98
2018-10-16T20:03:02.126Z,101484.00
2018-10-16T20:05:31.390Z,101476.63
2018-10-16T20:08:01.674Z,101480.37
2018-10-16T20:10:31.597Z,101475.50
2018-10-16T20:13:01.765Z,101474.66
2018-10-16T20:15:32.539Z,101467.94
2018-10-16T20:18:02.679Z,101468.26
2018-10-16T20:20:34.057Z,101471.56
2018-10-16T20:23:04.115Z,101467.53
2018-10-16T20:25:33.412Z,101470.22
2018-10-16T20:28:03.257Z,101470.22
2018-10-16T20:30:32.601Z,101464.84
2018-10-16T20:33:01.858Z,101464.52
2018-10-16T20:35:32.868Z,101453.47
2018-10-16T20:38:06.082Z,101459.86
2018-10-16T20:40:35.801Z,101465.76
2018-10-16T20:43:05.086Z,101463.77
2018-10-16T20:45:35.217Z,101465.11
2018-10-16T20:48:04.482Z,101460.23
2018-10-16T20:50:34.192Z,101462.28
2018-10-16T20:53:03.528Z,101464.65
2018-10-16T20:55:32.741Z,101464.65
2018-10-16T20:58:02.966Z,101461.67
2018-10-16T21:00:32.527Z,101466.72
2018-10-16T21:03:02.191Z,101462.63
2018-10-16T21:05:32.389Z,101463.81
2018-10-16T21:08:02.367Z,101466.88
2018-10-16T21:10:32.698Z,101466.95
2018-10-16T21:13:03.117Z,101468.99
2018-10-16T21:15:32.358Z,101461.33
2018-10-16T21:18:01.433Z,101462.02
2018-10-16T21:20:30.880Z,101465.55
2018-10-16T21:22:59.977Z,101462.02
2018-10-16T21:25:28.870Z,101466.05
2018-10-16T21:27:57.744Z,101464.06
2018-10-16T21:30:26.600Z,101471.80
2018-10-16T21:32:55.718Z,101466.75
2018-10-16T21:35:25.843Z,101472.82
2018-10-16T21:37:56.634Z,101468.87
2018-10-16T21:40:26.467Z,101469.23
2018-10-16T21:42:55.608Z,101472.51
2018-10-16T21:45:25.681Z,101476.29
2018-10-16T21:47:55.443Z,101478.58
2018-10-16T21:50:24.577Z,101476.66
2018-10-16T21:52:54.317Z,101479.56
2018-10-16T21:55:23.387Z,101482.77
2018-10-16T21:57:52.566Z,101480.47
2018-10-16T22:00:27.237Z,101478.80
2018-10-16T22:02:58.122Z,101479.64
2018-10-16T22:05:27.194Z,101486.36
2018-10-16T22:07:57.336Z,101478.48
2018-10-16T22:10:27.589Z,101477.64
2018-10-16T22:12:56.624Z,101477.83
2018-10-16T22:15:25.702Z,101475.46
2018-10-16T22:17:55.623Z,101477.83
2018-10-16T22:20:25.023Z,101478.84
2018-10-16T22:22:54.333Z,101481.92
2018-10-16T22:25:23.559Z,101481.27
2018-10-16T22:27:52.833Z,101482.80
2018-10-16T22:30:22.281Z,101479.67
2018-10-16T22:32:52.501Z,101469.79
2018-10-16T22:35:22.546Z,101476.33
2018-10-16T22:37:53.205Z,101471.46
2018-10-16T22:40:23.746Z,101477.52
2018-10-16T22:42:53.933Z,101476.75
2018-10-16T22:45:23.257Z,101476.09
2018-10-16T22:47:52.471Z,101479.00
2018-10-16T22:50:21.606Z,101481.20
2018-10-16T22:52:52.578Z,101479.93
2018-10-16T22:55:23.431Z,101477.75
2018-10-16T22:57:52.534Z,101482.61
2018-10-16T23:00:22.289Z,101482.29
2018-10-16T23:02:51.481Z,101485.66
2018-10-16T23:05:21.018Z,101482.97
2018-10-16T23:07:50.616Z,101479.70
2018-10-16T23:10:20.632Z,101484.26
2018-10-16T23:12:54.905Z,101489.00
2018-10-16T23:15:24.099Z,101480.11
2018-10-16T23:17:54.074Z,101479.61
2018-10-16T23:20:23.332Z,101478.30
2018-10-16T23:22:53.595Z,101473.43
2018-10-16T23:25:23.616Z,101475.45
2018-10-16T23:27:52.826Z,101473.28
2018-10-16T23:30:23.060Z,101479.81
2018-10-16T23:32:52.722Z,101481.81
2018-10-16T23:35:22.171Z,101475.61
2018-10-16T23:37:51.962Z,101476.47
2018-10-16T23:40:23.138Z,101480.86
2018-10-16T23:42:53.683Z,101477.52
2018-10-16T23:45:22.910Z,101474.53
2018-10-16T23:47:52.157Z,101474.23
2018-10-16T23:50:23.572Z,101468.69
2018-10-16T23:52:53.174Z,101465.84
2018-10-16T23:55:23.129Z,101470.09
2018-10-16T23:57:52.573Z,101467.58
